createdAt,value
2023-02-26T00:01:25.330Z,-2.10
2023-02-26T00:03:54.017Z,-2.10
2023-02-26T00:06:21.488Z,-2.00
2023-02-26T00:08:48.468Z,-2.10
2023-02-26T00:11:16.081Z,-2.20
2023-02-26T00:13:45.720Z,-2.10
2023-02-26T00:16:34.738Z,-2.20
2023-02-26T00:19:04.966Z,-2.20
2023-02-26T00:21:32.839Z,-2.20
2023-02-26T00:24:02.023Z,-2.20
2023-02-26T00:26:31.409Z,-2.50
2023-02-26T00:28:59.130Z,-2.20
2023-02-26T00:31:26.600Z,-2.10
2023-02-26T00:33:55.307Z,-2.10
2023-02-26T00:36:22.097Z,-2.20
2023-02-26T00:39:03.780Z,-2.20
2023-02-26T00:41:31.159Z,-2.20
2023-02-26T00:43:58.379Z,-2.10
2023-02-26T00:46:46.937Z,-2.20
2023-02-26T00:49:44.411Z,-2.20
2023-02-26T00:52:18.209Z,-2.20
2023-02-26T00:54:45.035Z,-2.20
2023-02-26T00:57:11.901Z,-2.20
2023-02-26T00:59:38.722Z,-2.20
2023-02-26T01:02:05.457Z,-2.10
2023-02-26T01:04:32.492Z,-2.20
2023-02-26T01:06:59.466Z,-2.10
2023-02-26T01:09:29.912Z,-2.10
2023-02-26T01:12:01.545Z,-2.10
2023-02-26T01:14:31.326Z,-1.70
2023-02-26T01:17:00.841Z,-2.30
2023-02-26T01:19:49.784Z,-2.20
2023-02-26T01:22:20.157Z,-2.20
2023-02-26T01:24:49.452Z,-2.30
2023-02-26T01:27:16.580Z,-2.40
2023-02-26T01:29:44.500Z,-2.30
2023-02-26T01:32:26.971Z,-2.30
2023-02-26T01:34:57.037Z,-0.50
2023-02-26T01:37:42.615Z,-2.40
2023-02-26T01:40:34.432Z,-2.40
2023-02-26T01:43:07.847Z,-2.30
2023-02-26T01:45:39.329Z,-2.40
2023-02-26T01:48:18.357Z,-2.40
2023-02-26T01:50:45.265Z,-2.30
2023-02-26T01:53:24.960Z,-2.40
2023-02-26T01:56:01.678Z,-2.30
2023-02-26T01:58:33.397Z,-2.30
2023-02-26T02:01:01.118Z,-2.60
2023-02-26T02:03:30.742Z,-2.40
2023-02-26T02:06:14.308Z,-2.30
2023-02-26T02:08:41.296Z,-2.40
2023-02-26T02:11:11.201Z,-2.30
2023-02-26T02:14:23.753Z,-2.40
2023-02-26T02:17:12.131Z,-2.40
2023-02-26T02:20:06.354Z,-2.40
2023-02-26T02:22:46.181Z,-2.50
2023-02-26T02:25:39.161Z,-2.40
2023-02-26T02:28:47.916Z,-2.40
2023-02-26T02:31:21.573Z,-2.40
2023-02-26T02:34:19.947Z,-2.50
2023-02-26T02:36:58.707Z,-2.30
2023-02-26T02:39:49.815Z,-2.50
2023-02-26T02:42:19.205Z,-2.50
2023-02-26T02:44:52.984Z,-2.70
2023-02-26T02:47:22.827Z,-2.60
2023-02-26T02:50:01.176Z,-2.50
2023-02-26T02:52:43.980Z,-2.50
2023-02-26T02:55:18.636Z,-2.60
2023-02-26T02:58:09.402Z,-2.70
2023-02-26T03:00:41.668Z,-3.00
2023-02-26T03:03:37.243Z,-2.60
2023-02-26T03:06:04.483Z,-2.50
2023-02-26T03:08:36.514Z,-2.50
2023-02-26T03:11:03.634Z,-2.50
2023-02-26T03:13:30.629Z,-2.60
2023-02-26T03:16:16.565Z,-2.70
2023-02-26T03:18:54.184Z,-2.30
2023-02-26T03:21:43.678Z,-2.90
2023-02-26T03:24:22.553Z,-2.80
2023-02-26T03:27:02.797Z,-2.90
2023-02-26T03:29:46.422Z,-2.90
2023-02-26T03:32:29.869Z,-3.00
2023-02-26T03:35:03.093Z,-3.00
2023-02-26T03:37:39.371Z,-3.00
2023-02-26T03:40:13.875Z,-3.20
2023-02-26T03:42:49.284Z,-3.10
2023-02-26T03:45:20.545Z,-3.10
2023-02-26T03:47:53.660Z,-3.10
2023-02-26T03:50:38.808Z,-3.10
2023-02-26T03:53:10.101Z,-3.00
2023-02-26T03:55:43.823Z,-2.70
2023-02-26T03:58:11.220Z,-3.20
2023-02-26T04:00:43.106Z,-2.20
2023-02-26T04:03:19.262Z,-3.10
2023-02-26T04:05:50.441Z,-4.20
2023-02-26T04:08:20.161Z,-3.10
2023-02-26T04:10:59.879Z,-3.50
2023-02-26T04:13:28.471Z,-3.30
2023-02-26T04:15:55.490Z,-3.30
2023-02-26T04:18:22.380Z,-3.20
2023-02-26T04:20:49.562Z,-3.30
2023-02-26T04:23:16.536Z,-3.40
2023-02-26T04:25:43.320Z,-3.30
2023-02-26T04:28:10.150Z,-3.40
2023-02-26T04:30:36.985Z,-3.20
2023-02-26T04:33:04.006Z,-3.20
2023-02-26T04:35:30.939Z,-3.10
2023-02-26T04:37:57.880Z,-3.50
2023-02-26T04:40:24.834Z,-3.20
2023-02-26T04:42:52.022Z,-3.20
2023-02-26T04:45:18.820Z,-3.30
2023-02-26T04:47:45.643Z,-3.30
2023-02-26T04:50:12.674Z,-3.40
2023-02-26T04:52:39.559Z,-3.40
2023-02-26T04:55:07.588Z,-3.40
2023-02-26T04:57:34.539Z,-3.40
2023-02-26T05:00:01.541Z,-3.40
2023-02-26T05:02:28.376Z,-3.40
2023-02-26T05:04:55.255Z,-3.60
2023-02-26T05:07:22.121Z,-3.50
2023-02-26T05:09:48.994Z,-3.50
2023-02-26T05:12:16.167Z,-3.60
2023-02-26T05:14:43.030Z,-3.60
2023-02-26T05:17:10.005Z,-3.60
2023-02-26T05:19:36.940Z,-3.60
2023-02-26T05:22:03.823Z,-3.60
2023-02-26T05:24:30.660Z,-3.60
2023-02-26T05:26:57.608Z,-3.70
2023-02-26T05:29:24.569Z,-3.60
2023-02-26T05:31:51.576Z,-3.70
2023-02-26T05:34:18.706Z,-3.80
2023-02-26T05:36:45.465Z,-3.70
2023-02-26T05:39:12.412Z,-3.80
2023-02-26T05:41:39.203Z,-4.20
2023-02-26T05:44:07.900Z,-3.80
2023-02-26T05:46:35.054Z,-4.10
2023-02-26T05:49:02.011Z,-3.90
2023-02-26T05:51:29.308Z,-4.00
2023-02-26T05:53:56.120Z,-4.00
2023-02-26T05:56:23.349Z,-3.90
2023-02-26T05:58:50.274Z,-3.90
2023-02-26T06:01:17.596Z,-4.00
2023-02-26T06:03:44.619Z,-4.10
2023-02-26T06:06:12.938Z,-4.10
2023-02-26T06:08:39.954Z,-4.10
2023-02-26T06:11:06.861Z,-4.10
2023-02-26T06:13:33.733Z,-4.10
2023-02-26T06:16:00.757Z,-3.90
2023-02-26T06:18:28.078Z,-3.90
2023-02-26T06:20:54.876Z,-4.00
2023-02-26T06:23:21.791Z,-3.90
2023-02-26T06:25:53.903Z,-3.80
2023-02-26T06:28:21.031Z,-3.80
2023-02-26T06:30:47.925Z,-3.80
2023-02-26T06:33:14.947Z,-3.70
2023-02-26T06:35:42.703Z,-3.70
2023-02-26T06:38:09.504Z,-3.80
2023-02-26T06:40:37.104Z,-3.80
2023-02-26T06:43:04.046Z,-3.80
2023-02-26T06:45:31.383Z,-3.80
2023-02-26T06:47:58.362Z,-3.80
2023-02-26T06:50:25.386Z,-3.80
2023-02-26T06:52:52.232Z,-3.80
2023-02-26T06:55:19.162Z,-3.70
2023-02-26T06:57:46.028Z,-3.70
2023-02-26T07:00:13.746Z,-2.10
2023-02-26T07:02:40.964Z,-3.50
2023-02-26T07:05:08.510Z,-3.40
2023-02-26T07:07:35.328Z,-3.40
2023-02-26T07:10:02.280Z,-3.40
2023-02-26T07:12:29.180Z,-3.70
2023-02-26T07:14:56.078Z,-3.60
2023-02-26T07:17:23.828Z,-3.70
2023-02-26T07:19:52.630Z,-3.60
2023-02-26T07:22:21.886Z,-3.70
2023-02-26T07:24:50.174Z,-3.70
2023-02-26T07:27:17.504Z,-3.70
2023-02-26T07:29:44.318Z,-3.10
2023-02-26T07:32:11.138Z,-3.60
2023-02-26T07:34:38.055Z,-3.70
2023-02-26T07:37:05.986Z,-3.60
2023-02-26T07:39:32.802Z,-2.10
2023-02-26T07:41:59.643Z,-3.60
2023-02-26T07:44:26.618Z,-3.60
2023-02-26T07:46:53.521Z,-3.60
2023-02-26T07:49:20.427Z,-3.80
2023-02-26T07:51:48.240Z,-3.60
2023-02-26T07:54:15.522Z,-1.60
2023-02-26T07:56:42.919Z,-3.50
2023-02-26T07:59:10.291Z,-3.60
2023-02-26T08:01:38.206Z,-3.50
2023-02-26T08:04:05.204Z,-3.50
2023-02-26T08:06:32.584Z,-3.50
2023-02-26T08:08:59.718Z,-3.40
2023-02-26T08:11:26.838Z,-3.60
2023-02-26T08:13:54.030Z,-2.80
2023-02-26T08:16:21.078Z,-2.50
2023-02-26T08:18:54.502Z,-3.30
2023-02-26T08:21:21.669Z,-3.70
2023-02-26T08:23:49.022Z,-3.70
2023-02-26T08:26:16.154Z,-3.50
2023-02-26T08:28:43.015Z,-3.50
2023-02-26T08:31:09.969Z,-3.60
2023-02-26T08:33:36.877Z,-3.50
2023-02-26T08:36:05.486Z,-3.60
2023-02-26T08:38:32.934Z,-3.60
2023-02-26T08:41:00.297Z,-3.60
2023-02-26T08:43:27.549Z,-3.50
2023-02-26T08:45:55.875Z,-3.50
2023-02-26T08:48:23.358Z,-3.40
2023-02-26T08:50:50.414Z,-3.30
2023-02-26T08:53:17.407Z,-3.20
2023-02-26T08:55:49.014Z,-3.30
2023-02-26T08:58:16.357Z,-3.30
2023-02-26T09:00:43.556Z,-3.40
2023-02-26T09:03:10.814Z,-3.40
2023-02-26T09:05:37.670Z,-3.30
2023-02-26T09:08:04.804Z,-3.20
2023-02-26T09:10:31.704Z,-3.30
2023-02-26T09:12:58.584Z,-3.50
2023-02-26T09:15:25.588Z,-3.40
2023-02-26T09:17:52.309Z,-3.50
2023-02-26T09:20:19.210Z,-3.50
2023-02-26T09:22:45.967Z,-3.40
2023-02-26T09:25:13.042Z,-3.20
2023-02-26T09:27:39.854Z,-3.00
2023-02-26T09:30:07.720Z,-2.70
2023-02-26T09:32:34.747Z,-2.60
2023-02-26T09:35:02.830Z,-2.60
2023-02-26T09:37:29.710Z,-2.70
2023-02-26T09:39:57.015Z,-2.70
2023-02-26T09:42:56.740Z,-2.80
2023-02-26T09:45:33.519Z,-2.50
2023-02-26T09:48:05.578Z,-2.30
2023-02-26T09:50:43.796Z,-2.20
2023-02-26T09:53:31.359Z,-2.30
2023-02-26T09:56:19.716Z,-2.20
2023-02-26T09:58:46.647Z,-2.30
2023-02-26T10:01:20.438Z,-2.10
2023-02-26T10:04:13.397Z,-2.30
2023-02-26T10:06:55.373Z,-2.40
2023-02-26T10:09:26.017Z,-2.60
2023-02-26T10:12:23.281Z,-2.70
2023-02-26T10:24:29.772Z,-2.90
2023-02-26T10:27:11.847Z,-2.80
2023-02-26T10:30:08.003Z,-2.90
2023-02-26T10:33:12.182Z,-2.70
2023-02-26T10:35:53.069Z,-2.60
2023-02-26T10:38:41.173Z,-2.90
2023-02-26T10:41:19.637Z,-2.60
2023-02-26T10:44:04.540Z,-2.60
2023-02-26T10:47:03.672Z,-2.50
2023-02-26T10:49:53.611Z,-2.40
2023-02-26T10:52:27.762Z,-2.30
2023-02-26T10:55:15.390Z,-2.20
2023-02-26T10:57:51.308Z,-2.10
2023-02-26T11:00:21.057Z,-2.20
2023-02-26T11:02:52.066Z,-2.10
2023-02-26T11:05:20.674Z,-1.80
2023-02-26T11:07:56.289Z,-1.50
2023-02-26T11:10:26.365Z,-1.40
2023-02-26T11:12:54.247Z,-1.30
2023-02-26T11:15:25.344Z,-1.30
2023-02-26T11:17:56.929Z,-1.40
2023-02-26T11:20:37.908Z,-1.50
2023-02-26T11:23:11.138Z,-1.40
2023-02-26T11:25:38.985Z,-1.00
2023-02-26T11:28:18.905Z,-1.30
2023-02-26T11:30:49.185Z,-1.50
2023-02-26T11:33:24.523Z,-1.40
2023-02-26T11:35:52.384Z,-1.50
2023-02-26T11:38:23.074Z,-1.60
2023-02-26T11:40:55.082Z,-1.50
2023-02-26T11:43:24.157Z,-1.50
2023-02-26T11:45:59.012Z,-1.50
2023-02-26T11:48:39.094Z,-1.60
2023-02-26T11:51:07.420Z,-1.60
2023-02-26T11:53:37.607Z,-1.60
2023-02-26T11:56:11.936Z,-1.60
2023-02-26T11:58:40.872Z,-1.00
2023-02-26T12:01:10.568Z,-2.00
2023-02-26T12:03:42.579Z,-1.90
2023-02-26T12:06:18.591Z,-1.80
2023-02-26T12:08:45.831Z,-1.70
2023-02-26T12:11:41.137Z,-1.60
2023-02-26T12:14:59.012Z,-1.50
2023-02-26T12:18:09.885Z,-1.50
2023-02-26T12:20:36.732Z,-1.60
2023-02-26T12:23:12.544Z,-1.70
2023-02-26T12:26:06.878Z,-1.90
2023-02-26T12:28:55.221Z,-1.80
2023-02-26T12:31:49.818Z,-1.70
2023-02-26T12:34:27.992Z,-1.90
2023-02-26T12:37:13.515Z,-1.90
2023-02-26T12:39:59.023Z,-1.90
2023-02-26T12:42:51.912Z,-1.80
2023-02-26T12:45:55.805Z,-1.90
2023-02-26T12:48:57.966Z,-1.80
2023-02-26T12:51:31.524Z,-1.80
2023-02-26T12:54:36.593Z,-1.80
2023-02-26T12:57:06.293Z,-1.80
2023-02-26T12:59:51.917Z,-1.70
2023-02-26T13:02:53.866Z,-1.80
2023-02-26T13:05:54.820Z,-1.70
2023-02-26T13:08:48.812Z,-1.60
2023-02-26T13:11:54.498Z,-1.60
2023-02-26T13:14:52.277Z,-1.60
2023-02-26T13:17:41.665Z,-1.40
2023-02-26T13:20:19.709Z,-1.30
2023-02-26T13:22:52.614Z,-1.10
2023-02-26T13:25:51.011Z,-0.90
2023-02-26T13:28:39.249Z,-1.10
2023-02-26T13:31:32.889Z,-1.10
2023-02-26T13:34:10.998Z,-1.20
2023-02-26T13:36:38.125Z,-1.30
2023-02-26T13:39:07.886Z,-1.20
2023-02-26T13:41:48.640Z,-1.20
2023-02-26T13:44:52.578Z,-1.20
2023-02-26T13:47:33.955Z,-1.00
2023-02-26T13:50:20.004Z,-0.90
2023-02-26T13:52:56.162Z,-0.80
2023-02-26T13:56:05.613Z,-0.80
2023-02-26T13:58:39.618Z,-0.80
2023-02-26T14:01:11.689Z,0.70
2023-02-26T14:04:12.838Z,-0.80
2023-02-26T14:06:39.659Z,-0.80
2023-02-26T14:09:29.223Z,-1.10
2023-02-26T14:11:55.926Z,-1.40
2023-02-26T14:14:25.163Z,-1.40
2023-02-26T14:17:07.862Z,-1.30
2023-02-26T14:19:37.742Z,-1.40
2023-02-26T14:22:25.872Z,-1.30
2023-02-26T14:25:16.478Z,-1.10
2023-02-26T14:27:46.492Z,-1.40
2023-02-26T14:30:29.303Z,-1.60
2023-02-26T14:33:05.008Z,-1.60
2023-02-26T14:35:44.737Z,-1.50
2023-02-26T14:38:31.013Z,-1.50
2023-02-26T14:41:07.583Z,-1.30
2023-02-26T14:43:44.830Z,-1.10
2023-02-26T14:46:12.472Z,-0.90
2023-02-26T14:48:40.035Z,-1.00
2023-02-26T14:51:33.463Z,-1.20
2023-02-26T14:54:15.568Z,-1.20
2023-02-26T14:57:00.240Z,-1.10
2023-02-26T14:59:53.631Z,-1.10
2023-02-26T15:03:17.143Z,-1.30
2023-02-26T15:06:01.818Z,-1.30
2023-02-26T15:09:01.117Z,-1.20
2023-02-26T15:11:33.200Z,-1.40
2023-02-26T15:14:20.142Z,-1.60
2023-02-26T15:17:02.995Z,-1.80
2023-02-26T15:19:51.207Z,-1.90
2023-02-26T15:22:57.026Z,-1.80
2023-02-26T15:25:50.720Z,-2.10
2023-02-26T15:28:37.764Z,-1.80
2023-02-26T15:31:07.456Z,-1.80
2023-02-26T15:33:35.038Z,-1.70
2023-02-26T15:36:07.082Z,-1.60
2023-02-26T15:38:49.076Z,-1.50
2023-02-26T15:41:17.209Z,-1.40
2023-02-26T15:43:51.007Z,-1.30
2023-02-26T15:46:19.459Z,-1.30
2023-02-26T15:48:52.708Z,-1.30
2023-02-26T15:51:20.203Z,-1.30
2023-02-26T15:53:52.775Z,-1.40
2023-02-26T15:56:36.631Z,-1.40
2023-02-26T15:59:17.474Z,-1.40
2023-02-26T16:01:44.416Z,-1.30
2023-02-26T16:04:15.172Z,-1.10
2023-02-26T16:06:47.677Z,-1.00
2023-02-26T16:09:20.821Z,-1.00
2023-02-26T16:11:49.769Z,-1.30
2023-02-26T16:14:22.542Z,-1.50
2023-02-26T16:16:54.920Z,-1.70
2023-02-26T16:19:54.411Z,-1.80
2023-02-26T16:22:30.134Z,-1.80
2023-02-26T16:25:13.612Z,-1.90
2023-02-26T16:27:42.824Z,-2.00
2023-02-26T16:30:23.739Z,-1.90
2023-02-26T16:32:54.046Z,-1.80
2023-02-26T16:35:24.291Z,-1.70
2023-02-26T16:37:55.196Z,-1.60
2023-02-26T16:40:27.851Z,-1.60
2023-02-26T16:43:01.923Z,-1.50
2023-02-26T16:45:37.680Z,-1.50
2023-02-26T16:48:12.753Z,-1.50
2023-02-26T16:50:39.650Z,-1.60
2023-02-26T16:53:19.656Z,-1.50
2023-02-26T16:55:52.015Z,-1.50
2023-02-26T16:58:20.087Z,-1.60
2023-02-26T17:00:54.001Z,-1.70
2023-02-26T17:03:23.414Z,-1.80
2023-02-26T17:05:53.292Z,-1.90
2023-02-26T17:08:23.572Z,-2.00
2023-02-26T17:10:55.491Z,-1.90
2023-02-26T17:13:30.436Z,-1.90
2023-02-26T17:16:07.567Z,-1.90
2023-02-26T17:18:34.480Z,-2.00
2023-02-26T17:21:04.245Z,-2.00
2023-02-26T17:23:36.787Z,-1.90
2023-02-26T17:26:04.937Z,-1.80
2023-02-26T17:28:41.855Z,-1.40
2023-02-26T17:31:09.129Z,-1.80
2023-02-26T17:33:38.062Z,-1.80
2023-02-26T17:36:05.376Z,-1.80
2023-02-26T17:38:33.456Z,-1.80
2023-02-26T17:41:00.836Z,-1.80
2023-02-26T17:43:28.784Z,-1.90
2023-02-26T17:45:55.907Z,-1.90
2023-02-26T17:48:23.238Z,-1.90
2023-02-26T17:50:57.947Z,-2.00
2023-02-26T17:53:33.332Z,-2.00
2023-02-26T17:56:00.411Z,-1.90
2023-02-26T17:58:30.212Z,-1.90
2023-02-26T18:00:57.539Z,-2.00
2023-02-26T18:03:24.614Z,-1.90
2023-02-26T18:05:53.475Z,-1.90
2023-02-26T18:08:25.875Z,-2.00
2023-02-26T18:10:54.064Z,-1.90
2023-02-26T18:13:21.730Z,-2.00
2023-02-26T18:15:49.653Z,-2.10
2023-02-26T18:18:17.740Z,-2.20
2023-02-26T18:20:46.185Z,-2.30
2023-02-26T18:23:13.880Z,-2.30
2023-02-26T18:25:41.742Z,-2.20
2023-02-26T18:28:14.338Z,-2.20
2023-02-26T18:30:44.158Z,-2.10
2023-02-26T18:33:12.650Z,-2.00
2023-02-26T18:35:45.829Z,-2.00
2023-02-26T18:38:18.379Z,-2.00
2023-02-26T18:40:46.333Z,-2.10
2023-02-26T18:43:13.780Z,-2.20
2023-02-26T18:45:42.011Z,-2.10
2023-02-26T18:48:11.833Z,-2.20
2023-02-26T18:50:39.168Z,-2.10
2023-02-26T18:53:05.903Z,-2.10
2023-02-26T18:55:32.879Z,-2.20
2023-02-26T18:57:59.778Z,-2.10
2023-02-26T19:00:28.546Z,-2.20
2023-02-26T19:02:55.860Z,-2.10
2023-02-26T19:05:24.668Z,-1.90
2023-02-26T19:07:52.411Z,-2.10
2023-02-26T19:10:19.502Z,-2.20
2023-02-26T19:12:46.638Z,-2.10
2023-02-26T19:15:14.125Z,-2.10
2023-02-26T19:17:42.036Z,-2.10
2023-02-26T19:20:09.835Z,-2.00
2023-02-26T19:22:36.938Z,-2.00
2023-02-26T19:25:04.484Z,-1.90
2023-02-26T19:27:31.430Z,-2.00
2023-02-26T19:29:58.514Z,-2.10
2023-02-26T19:32:26.589Z,-2.00
2023-02-26T19:34:53.765Z,-2.10
2023-02-26T19:37:20.662Z,-2.10
2023-02-26T19:39:47.467Z,-2.10
2023-02-26T19:42:14.895Z,-2.20
2023-02-26T19:44:41.720Z,-2.10
2023-02-26T19:47:08.471Z,-2.10
2023-02-26T19:49:35.514Z,-2.10
2023-02-26T19:52:02.256Z,-2.20
2023-02-26T19:54:29.144Z,-2.10
2023-02-26T19:56:56.119Z,-2.10
2023-02-26T19:59:22.964Z,-2.20
2023-02-26T20:01:49.942Z,-2.30
2023-02-26T20:04:18.209Z,-2.20
2023-02-26T20:06:45.319Z,-2.10
2023-02-26T20:09:12.762Z,-2.20
2023-02-26T20:11:39.721Z,-2.10
2023-02-26T20:14:07.533Z,-2.30
2023-02-26T20:16:34.672Z,-2.30
2023-02-26T20:19:01.882Z,-2.30
2023-02-26T20:21:29.068Z,-2.50
2023-02-26T20:23:57.554Z,-2.40
2023-02-26T20:26:24.407Z,-2.40
2023-02-26T20:28:51.252Z,-2.30
2023-02-26T20:31:18.300Z,-2.40
2023-02-26T20:33:45.325Z,-2.40
2023-02-26T20:36:12.565Z,-2.40
2023-02-26T20:38:39.590Z,-2.40
2023-02-26T20:41:06.683Z,-2.40
2023-02-26T20:43:33.491Z,-2.40
2023-02-26T20:46:01.345Z,-2.30
2023-02-26T20:48:28.457Z,-2.30
2023-02-26T20:51:02.349Z,-2.40
2023-02-26T20:53:29.364Z,-2.40
2023-02-26T20:55:56.502Z,-2.40
2023-02-26T20:58:25.131Z,-2.50
2023-02-26T21:00:55.006Z,-2.50
2023-02-26T21:03:21.788Z,-2.50
2023-02-26T21:05:48.659Z,-2.40
2023-02-26T21:08:15.521Z,-2.40
2023-02-26T21:10:42.299Z,-2.40
2023-02-26T21:13:09.879Z,-2.50
2023-02-26T21:15:37.227Z,-2.50
2023-02-26T21:18:04.039Z,-2.60
2023-02-26T21:20:30.984Z,-2.60
2023-02-26T21:22:58.803Z,-2.70
2023-02-26T21:25:25.713Z,-2.70
2023-02-26T21:27:52.843Z,-2.70
2023-02-26T21:30:19.961Z,-2.60
2023-02-26T21:32:46.741Z,-2.50
2023-02-26T21:35:15.986Z,-2.50
2023-02-26T21:37:46.499Z,-1.60
2023-02-26T21:40:14.957Z,-2.60
2023-02-26T21:42:43.068Z,-2.50
2023-02-26T21:45:11.111Z,-2.50
2023-02-26T21:47:37.975Z,-2.50
2023-02-26T21:50:06.178Z,-2.40
2023-02-26T21:52:33.112Z,-2.40
2023-02-26T21:55:00.045Z,-2.50
2023-02-26T21:57:27.301Z,-2.40
2023-02-26T21:59:54.236Z,-2.40
2023-02-26T22:02:21.151Z,-2.40
2023-02-26T22:04:48.028Z,-2.40
2023-02-26T22:07:15.004Z,-2.50
2023-02-26T22:09:42.018Z,-2.50
2023-02-26T22:12:08.967Z,-2.40
2023-02-26T22:14:36.878Z,-2.40
2023-02-26T22:17:03.747Z,-2.60
2023-02-26T22:19:30.513Z,-2.60
2023-02-26T22:21:57.453Z,-2.60
2023-02-26T22:24:24.408Z,-2.60
2023-02-26T22:26:51.227Z,-2.60
2023-02-26T22:29:19.441Z,-2.60
2023-02-26T22:31:47.575Z,-2.60
2023-02-26T22:34:15.430Z,-2.50
2023-02-26T22:36:42.350Z,-2.60
2023-02-26T22:39:09.149Z,-2.50
2023-02-26T22:41:37.303Z,-2.60
2023-02-26T22:44:04.555Z,-2.60
2023-02-26T22:46:32.284Z,-2.70
2023-02-26T22:48:59.385Z,-2.70
2023-02-26T22:51:28.192Z,-2.60
2023-02-26T22:53:55.765Z,-2.60
2023-02-26T22:56:22.478Z,-2.70
2023-02-26T22:58:49.251Z,-2.60
2023-02-26T23:01:15.996Z,-2.70
2023-02-26T23:03:42.757Z,-2.80
2023-02-26T23:06:10.072Z,-2.80
2023-02-26T23:08:37.435Z,-2.80
2023-02-26T23:11:04.361Z,-2.80
2023-02-26T23:13:34.319Z,-2.80
2023-02-26T23:16:02.940Z,-2.80
2023-02-26T23:18:30.014Z,-2.80
2023-02-26T23:20:56.845Z,-2.80
2023-02-26T23:23:23.872Z,-2.80
2023-02-26T23:25:50.700Z,-2.80
2023-02-26T23:28:17.460Z,-2.90
2023-02-26T23:30:44.957Z,-2.90
2023-02-26T23:33:12.371Z,-2.90
2023-02-26T23:35:39.465Z,-2.90
2023-02-26T23:38:06.506Z,-2.80
2023-02-26T23:40:33.891Z,-2.80
2023-02-26T23:43:00.780Z,-2.70
2023-02-26T23:45:27.603Z,-2.80
2023-02-26T23:47:54.527Z,-2.80
2023-02-26T23:50:21.265Z,-2.80
2023-02-26T23:52:47.999Z,-2.90
2023-02-26T23:55:15.011Z,-2.90
2023-02-26T23:57:44.123Z,-2.80
